HTMG

Morogoro Airport

Morogoro, Tanzania
METAR HTMG 151900Z 06008KT 9999 FEW026 28/20 Q1014
Observed Flight Rules
Feb-15 @ 19:00 UTC (50 minutes ago) Visual Flight Rules
Wind Visibility Clouds
60° at 8 knots 10,000+ meters
  • Few at 2,600' AGL
Temperatures Readings
Current 28°C / 82°F
Dewpoint 20°C / 68°F
Humidity 62%
Altimeter 29.94" Hg
Pressure 1013.92 hPa
Elevation 526
METAR HTMG 151900Z 06008KT 9999 FEW026 28/20 Q1014
Observed Flight Rules
Feb-15 @ 19:00 UTC
(50 minutes ago)
VFR
Wind Visibility
60° at 8 knots 10,000+ meters
Clouds
  • Few at 2,600' AGL
Temperature Dewpoint
28°C / 82°F 20°C / 68°F
Humidity Altimeter Pressure
62% 29.94" Hg 1013.92 hPa